Latest Weather Observations for Kingfish B

IDV60801

Issued at 10:05 am EST Sunday 21 September 2014 (issued every 30 minutes, with the page automatically refreshed every 10 minutes)

About weather observations | Map of weather stations | Latest weather observations for VIC | Other Formats
Station Details ID: 400139 Name: KINGFISH B (PLATFORM) Lat: -38.60 Lon: 148.19 Height: 31.4 m
Data from the previous 72 hours. | See also: Recent months for locations in Victoria
Date/Time
EST
Temp
°C
App
Temp
°C
Dew
Point
Rel
Hum
%
Delta-T
°C
Wind Press
QNH
hPa
Press
MSL
hPa
Rain
since 9 am
mm
Dir
 
Spd
km/h
Gust
km/h
Spd
kts
Gust
kts
21/08:50am 15.5 9.3 6.0 53 4.6 SW 28 33 15 18 1030.0 - -
21/08:40am 15.5 9.3 6.3 54 4.5 SW 28 32 15 17 1030.0 - -
21/08:30am 15.2 9.5 6.7 57 4.1 SW 26 30 14 16 1030.1 - -
21/08:20am 14.9 8.8 6.4 57 4.1 SW 28 33 15 18 1030.0 - -
21/08:10am 15.0 8.9 6.4 56 4.2 SW 28 35 15 19 1029.9 - -
21/08:00am 14.9 8.8 6.4 57 4.1 SW 28 33 15 18 1029.9 - -
21/07:50am 14.7 9.0 6.8 59 3.9 SW 26 33 14 18 1029.9 - -
21/07:40am 14.5 8.4 6.4 58 3.9 SW 28 35 15 19 1029.7 - -
21/07:30am 14.3 8.2 6.7 60 3.7 SW 28 35 15 19 1029.8 - -
21/07:20am 14.2 7.7 6.5 60 3.7 SW 30 35 16 19 1029.7 - -
21/07:10am 14.2 7.6 6.2 58 3.8 SW 30 37 16 20 1029.5 - -
21/07:00am 14.4 7.9 6.3 58 3.9 SW 30 39 16 21 1029.4 - -
21/06:50am 14.5 7.6 6.6 59 3.8 SW 32 37 17 20 1029.5 - -
21/06:30am 13.6 6.6 6.1 60 3.6 SW 32 39 17 21 1029.2 - -
21/06:20am 13.5 6.5 6.0 60 3.6 SW 32 41 17 22 1029.2 - -
21/06:10am 13.4 6.2 6.1 61 3.5 SW 33 41 18 22 1029.2 - -
21/06:00am 13.3 6.2 6.4 63 3.3 SW 33 41 18 22 1028.9 - -
21/05:50am 13.2 6.0 6.1 62 3.4 SW 33 39 18 21 1028.9 - -
21/05:40am 13.4 6.5 6.3 62 3.4 SW 32 39 17 21 1028.6 - -
21/05:30am 13.2 6.1 6.3 63 3.3 SW 33 41 18 22 1028.5 - -
21/05:20am 13.1 6.2 6.6 64 3.1 SW 32 39 17 21 1028.5 - -
21/05:10am 12.9 6.7 6.1 63 3.2 SW 28 37 15 20 1028.2 - -
21/05:00am 12.9 6.3 5.9 62 3.3 SW 30 43 16 23 1028.1 - -
21/04:50am 12.9 5.9 6.0 63 3.3 SW 32 39 17 21 1028.1 - -
21/04:40am 13.2 6.7 6.5 64 3.2 SW 30 37 16 20 1028.2 - -
21/04:30am 13.1 6.5 6.1 62 3.3 SW 30 41 16 22 1028.3 - -
21/04:20am 12.9 6.0 6.4 64 3.1 SW 32 39 17 21 1028.0 - -
21/04:10am 13.1 6.1 5.9 61 3.4 SW 32 41 17 22 1027.9 - -
21/04:00am 13.3 5.7 6.0 61 3.5 SW 35 44 19 24 1028.1 - -
21/03:50am 13.2 6.0 5.9 61 3.5 SW 33 44 18 24 1028.1 - -
21/03:40am 13.2 5.3 6.1 62 3.4 SW 37 44 20 24 1028.0 - -
21/03:30am 13.2 6.4 6.7 64 3.1 SW 32 41 17 22 1027.8 - -
21/03:20am 13.1 6.3 6.7 65 3.1 SW 32 39 17 21 1027.8 - -
21/03:10am 13.1 6.2 6.6 64 3.1 SW 32 39 17 21 1027.6 - -
21/03:00am 13.0 5.9 6.3 64 3.2 SW 33 41 18 22 1027.5 - -
21/02:50am 13.1 5.6 6.5 64 3.2 SW 35 44 19 24 1027.6 - -
21/02:40am 13.1 6.0 6.6 64 3.1 SW 33 41 18 22 1027.5 - -
21/02:30am 13.1 6.1 6.8 65 3.0 SW 33 41 18 22 1027.7 - -
21/02:20am 13.0 6.1 6.3 64 3.2 SW 32 39 17 21 1027.2 - -
21/02:10am 13.1 6.2 6.3 63 3.2 SW 32 37 17 20 1027.4 - -
21/02:00am 13.1 6.6 6.5 64 3.2 SW 30 37 16 20 1027.3 - -
21/01:50am 13.1 6.6 6.4 64 3.2 SW 30 39 16 21 1027.2 - -
21/01:40am 13.2 6.3 6.4 63 3.3 SW 32 39 17 21 1027.4 - -
21/01:30am 13.1 6.0 6.5 64 3.2 SW 33 41 18 22 1027.1 - -
21/01:10am 13.1 6.1 6.2 63 3.3 SW 32 41 17 22 1027.4 - -
21/01:00am 13.2 6.3 6.4 63 3.3 SW 32 39 17 21 1027.5 - -
21/12:50am 13.3 6.4 6.6 64 3.2 SW 32 41 17 22 1027.4 - -
21/12:40am 13.3 6.3 6.8 64 3.1 SW 33 39 18 21 1027.4 - -
21/12:30am 13.2 6.7 6.5 64 3.2 SW 30 37 16 20 1027.4 - -
21/12:20am 13.2 6.4 6.8 65 3.1 SW 32 39 17 21 1027.5 - -
21/12:10am 13.2 6.4 7.0 66 3.0 SW 32 39 17 21 1027.6 - -
21/12:00am 13.2 6.4 7.0 66 3.0 SW 32 37 17 20 1027.9 - -
 
Date/Time
EST
Temp
°C
App
Temp
°C
Dew
Point
Rel
Hum
%
Delta-T
°C
Wind Press
QNH
hPa
Press
MSL
hPa
Rain
since 9 am
mm
Dir
 
Spd
km/h
Gust
km/h
Spd
kts
Gust
kts
20/11:50pm 13.1 6.6 6.7 65 3.1 SW 30 35 16 19 1027.9 - -
20/11:40pm 13.2 6.2 6.9 65 3.0 SW 33 41 18 22 1027.7 - -
20/11:30pm 13.3 6.9 7.0 65 3.1 SW 30 37 16 20 1027.7 - -
20/11:20pm 13.4 7.0 7.1 65 3.1 SW 30 37 16 20 1027.7 - -
20/11:10pm 13.5 7.2 7.2 65 3.1 SW 30 35 16 19 1027.7 - -
20/11:00pm 13.5 7.5 7.1 65 3.1 SW 28 35 15 19 1027.8 - -
20/10:50pm 13.5 7.5 7.2 65 3.1 SW 28 35 15 19 1027.8 - -
20/10:40pm 13.5 7.1 7.1 65 3.1 SW 30 33 16 18 1027.9 - -
20/10:30pm 14.4 8.8 7.1 61 3.6 SW 26 32 14 17 1028.0 - -
20/10:20pm 16.4 10.6 7.9 57 4.3 SW 28 32 15 17 1027.7 - -
20/10:10pm 14.9 9.6 8.3 64 3.3 SW 26 33 14 18 1027.7 - -
20/10:00pm 14.1 8.5 7.3 63 3.3 SW 26 33 14 18 1027.8 - -
20/09:50pm 14.5 9.2 8.3 66 3.1 SW 26 32 14 17 1027.8 - -
20/09:40pm 13.5 8.1 7.8 68 2.8 SW 26 33 14 18 1028.0 - -
20/09:30pm 13.1 7.6 7.5 69 2.7 SW 26 32 14 17 1027.9 - -
20/09:20pm 13.1 7.6 7.4 68 2.8 SW 26 30 14 16 1027.8 - -
20/09:00pm 13.1 7.2 7.4 68 2.8 SW 28 32 15 17 1027.8 - -
20/08:50pm 13.3 7.5 7.8 69 2.7 SW 28 33 15 18 1027.8 - -
20/08:40pm 13.3 7.8 7.7 69 2.8 SW 26 32 14 17 1027.8 - -
20/08:30pm 13.3 8.1 7.3 67 2.9 SW 24 28 13 15 1028.0 - -
20/08:20pm 13.2 8.1 7.5 68 2.8 SW 24 32 13 17 1028.0 - -
20/08:10pm 13.3 8.1 7.3 67 2.9 SW 24 32 13 17 1028.1 - -
20/08:00pm 13.3 6.9 7.0 65 3.1 SW 30 37 16 20 1028.1 - -
20/07:50pm 13.2 6.9 7.5 68 2.8 SW 30 35 16 19 1028.0 - -
20/07:40pm 13.3 7.5 8.1 71 2.6 SW 28 33 15 18 1028.1 - -
20/07:30pm 13.3 7.1 7.9 70 2.7 SW 30 35 16 19 1028.0 - -
20/07:20pm 13.3 7.5 7.9 70 2.7 SW 28 32 15 17 1028.2 - -
20/07:10pm 13.2 6.5 7.4 68 2.8 SW 32 35 17 19 1028.0 - -
20/07:00pm 13.1 6.4 7.2 67 2.9 SW 32 35 17 19 1027.7 - -
20/06:50pm 13.3 7.0 7.5 68 2.8 SW 30 35 16 19 1027.7 - -
20/06:40pm 13.2 6.5 7.5 68 2.8 SW 32 37 17 20 1027.6 - -
20/06:30pm 13.2 7.0 7.8 70 2.7 SW 30 35 16 19 1027.6 - -
20/06:20pm 13.3 7.0 7.5 68 2.8 SW 30 33 16 18 1027.4 - -
20/06:10pm 13.4 7.6 8.0 70 2.7 SW 28 33 15 18 1027.6 - -
20/06:00pm 13.5 7.1 8.4 71 2.5 SW 32 37 17 20 1027.5 - -
20/05:50pm 13.4 7.0 8.4 72 2.5 SW 32 35 17 19 1027.3 - -
20/05:40pm 13.5 7.1 8.5 72 2.5 SSW 32 35 17 19 1027.2 - -
20/05:30pm 13.5 7.8 8.5 72 2.5 SSW 28 33 15 18 1027.2 - -
20/05:20pm 13.6 7.6 8.5 71 2.6 SW 30 35 16 19 1026.9 - -
20/05:10pm 13.5 7.8 8.5 72 2.5 SSW 28 33 15 18 1027.1 - -
20/05:00pm 13.7 7.7 8.6 71 2.6 SSW 30 35 16 19 1027.1 - -
20/04:50pm 13.8 7.7 8.4 70 2.7 SSW 30 35 16 19 1027.0 - -
20/04:40pm 13.9 7.8 8.4 69 2.8 SSW 30 37 16 20 1026.9 - -
20/04:30pm 13.8 7.7 8.4 70 2.7 SW 30 33 16 18 1026.5 - -
20/04:20pm 13.9 8.6 8.5 70 2.7 SSW 26 32 14 17 1026.5 - -
20/04:10pm 14.0 7.9 8.3 68 2.9 SSW 30 33 16 18 1026.3 - -
20/04:00pm 14.0 7.4 7.8 66 3.1 SSW 32 37 17 20 1026.2 - -
20/03:50pm 14.1 7.6 8.0 66 3.0 SSW 32 35 17 19 1026.0 - -
20/03:40pm 14.1 7.7 8.5 69 2.8 SSW 32 37 17 20 1026.0 - -
20/03:30pm 14.0 8.4 8.7 70 2.7 SSW 28 33 15 18 1026.1 - -
20/03:20pm 14.1 8.5 8.8 70 2.7 SSW 28 33 15 18 1026.0 - -
20/03:10pm 14.2 9.0 8.7 69 2.8 SW 26 32 14 17 1025.8 - -
20/03:00pm 14.2 8.9 8.6 69 2.8 SW 26 30 14 16 1025.6 - -
20/02:50pm 14.1 8.8 8.5 69 2.8 SW 26 32 14 17 1025.5 - -
20/02:40pm 14.2 8.1 8.2 67 3.0 SSW 30 33 16 18 1025.7 - -
20/02:30pm 14.2 7.7 8.1 66 3.0 SSW 32 35 17 19 1025.6 - -
20/02:20pm 14.3 8.6 8.4 67 3.0 SSW 28 33 15 18 1025.6 - -
20/02:10pm 14.3 8.1 8.0 66 3.1 SSW 30 33 16 18 1025.5 - -
20/02:00pm 14.3 7.8 8.2 67 3.1 SSW 32 35 17 19 1025.5 - -
20/01:50pm 14.4 9.1 8.3 67 3.1 SSW 26 32 14 17 1025.6 - -
20/01:40pm 14.4 8.7 8.4 67 3.0 SSW 28 33 15 18 1025.6 - -
20/01:30pm 14.5 8.5 8.5 67 3.0 SSW 30 33 16 18 1025.7 - -
20/01:20pm 14.6 8.7 8.9 68 2.9 SSW 30 33 16 18 1025.7 - -
20/01:00pm 14.6 8.6 8.7 67 3.0 SSW 30 33 16 18 1025.4 - -
20/12:50pm 14.8 9.6 8.9 68 3.0 SSW 26 32 14 17 1025.4 - -
20/12:40pm 14.9 9.3 8.8 67 3.1 SW 28 32 15 17 1025.2 - -
20/12:30pm 15.1 9.5 8.7 65 3.3 SW 28 33 15 18 1025.3 - -
20/12:20pm 15.2 9.6 8.8 65 3.3 SW 28 32 15 17 1025.0 - -
20/12:10pm 15.2 10.0 9.0 66 3.2 SW 26 30 14 16 1025.2 - -
20/12:00pm 15.1 9.9 8.8 66 3.2 SW 26 30 14 16 1025.0 - -
20/11:50am 15.2 10.0 8.7 65 3.3 SW 26 32 14 17 1025.0 - -
20/11:40am 15.1 9.9 8.7 65 3.3 SW 26 30 14 16 1025.1 - -
20/11:30am 15.2 9.5 8.5 64 3.4 SW 28 30 15 16 1025.0 - -
20/11:20am 15.4 10.2 8.7 64 3.4 SW 26 30 14 16 1025.1 - -
20/11:10am 15.5 11.0 8.6 63 3.5 SW 22 28 12 15 1025.3 - -
20/11:00am 15.7 10.9 8.8 63 3.5 SW 24 28 13 15 1025.3 - -
20/10:50am 15.7 10.9 8.7 63 3.6 SW 24 26 13 14 1025.3 - -
20/10:40am 15.8 11.4 8.8 63 3.6 SW 22 26 12 14 1025.3 - -
20/10:30am 15.8 11.4 8.8 63 3.6 SW 22 26 12 14 1025.3 - -
20/10:20am 15.6 11.1 8.7 63 3.5 SW 22 24 12 13 1025.4 - -
20/10:10am 15.6 11.2 8.8 64 3.5 SW 22 26 12 14 1025.5 - -
20/10:00am 15.5 11.1 9.0 65 3.3 SW 22 26 12 14 1025.5 - -
20/09:50am 15.6 11.2 9.0 65 3.4 SW 22 26 12 14 1025.5 - -
20/09:40am 15.6 10.8 9.0 65 3.4 SW 24 28 13 15 1025.5 - -
20/09:30am 15.8 10.6 9.0 64 3.5 SW 26 30 14 16 1025.6 - -
20/09:20am 15.7 10.5 9.0 64 3.4 SSW 26 30 14 16 1025.7 - -
20/09:10am 15.5 10.7 8.8 64 3.4 SSW 24 28 13 15 1025.8 - -
20/09:00am 15.8 11.0 8.9 63 3.5 SSW 24 30 13 16 1025.7 - -
20/08:50am 15.6 10.4 8.8 64 3.5 SSW 26 30 14 16 1025.6 - -
20/08:40am 15.8 10.6 8.8 63 3.6 SSW 26 30 14 16 1025.7 - -
20/08:30am 15.3 10.4 8.5 64 3.4 SSW 24 28 13 15 1025.7 - -
20/08:20am 15.0 9.8 8.9 67 3.1 SSW 26 30 14 16 1025.6 - -
20/08:10am 15.0 9.9 9.1 68 3.0 SSW 26 30 14 16 1025.6 - -
20/07:50am 15.1 9.9 8.7 65 3.3 SSW 26 30 14 16 1025.5 - -
20/07:40am 15.1 9.9 8.8 66 3.2 SSW 26 32 14 17 1025.4 - -
20/07:30am 14.5 9.3 8.8 68 2.9 SSW 26 33 14 18 1025.3 - -
20/07:20am 14.7 9.1 8.6 67 3.1 SSW 28 32 15 17 1025.0 - -
20/07:10am 15.0 9.4 8.6 65 3.2 SSW 28 33 15 18 1025.0 - -
20/07:00am 14.7 9.1 8.9 68 3.0 SSW 28 32 15 17 1024.9 - -
20/06:50am 13.8 8.4 8.2 69 2.8 SSW 26 30 14 16 1024.9 - -
20/06:40am 14.0 8.3 8.4 69 2.8 SSW 28 33 15 18 1024.8 - -
20/06:30am 14.0 8.0 8.7 70 2.7 SSW 30 35 16 19 1024.6 - -
20/06:20am 13.7 7.7 8.7 72 2.5 SSW 30 37 16 20 1024.4 - -
20/06:10am 13.6 7.2 8.6 72 2.5 SSW 32 35 17 19 1024.5 - -
20/06:00am 13.4 7.0 8.5 72 2.5 SSW 32 35 17 19 1024.3 - -
20/05:50am 13.3 6.9 8.6 73 2.4 SSW 32 37 17 20 1024.0 - -
20/05:40am 13.1 7.1 8.6 74 2.3 SW 30 37 16 20 1023.7 - -
20/05:30am 13.0 7.0 8.5 74 2.2 SW 30 37 16 20 1023.5 - -
20/05:20am 13.0 6.6 8.4 73 2.3 SW 32 39 17 21 1023.4 - -
20/05:10am 13.0 6.5 8.2 72 2.4 SW 32 39 17 21 1023.2 - -
20/05:00am 13.2 6.1 8.2 71 2.5 SW 35 43 19 23 1023.1 - -
20/04:50am 13.3 6.2 8.1 71 2.6 SW 35 41 19 22 1022.8 - -
20/04:40am 13.4 6.0 8.2 71 2.6 SW 37 43 20 23 1023.1 - -
20/04:30am 13.4 6.0 8.2 71 2.6 SSW 37 41 20 22 1023.2 - -
20/04:20am 13.4 6.0 8.2 71 2.6 SSW 37 43 20 23 1023.4 - -
20/04:10am 13.6 6.2 8.3 70 2.6 SSW 37 44 20 24 1022.9 - -
20/03:50am 13.4 6.4 8.3 71 2.5 SW 35 41 19 22 1022.3 - -
20/03:40am 13.3 5.9 8.2 71 2.5 SW 37 43 20 23 1022.1 - -
20/03:30am 13.3 5.8 8.1 71 2.6 SW 37 44 20 24 1022.0 - -
20/03:20am 13.2 5.7 8.1 71 2.5 SW 37 44 20 24 1021.9 - -
20/03:10am 13.1 5.3 8.1 71 2.5 SW 39 44 21 24 1021.6 - -
20/03:00am 13.1 5.6 8.1 71 2.5 SW 37 44 20 24 1021.5 - -
20/02:50am 13.1 5.3 8.2 72 2.4 SW 39 46 21 25 1021.4 - -
20/02:40am 13.1 5.3 8.1 71 2.5 SW 39 48 21 26 1021.3 - -
20/02:30am 13.1 4.9 8.3 72 2.4 SW 41 46 22 25 1021.3 - -
20/02:20am 13.1 5.7 8.2 72 2.4 SW 37 46 20 25 1021.5 - -
20/02:10am 13.0 4.4 8.1 72 2.4 SW 43 48 23 26 1021.3 - -
20/02:00am 13.0 5.1 8.0 71 2.5 SW 39 46 21 25 1021.4 - -
20/01:50am 13.0 5.2 8.1 72 2.4 SW 39 50 21 27 1021.4 - -
20/01:40am 12.9 4.3 8.1 72 2.4 SW 43 50 23 27 1021.3 - -
20/01:30am 12.9 4.7 8.1 72 2.4 SW 41 50 22 27 1021.2 - -
20/01:20am 12.9 4.3 8.0 72 2.4 SW 43 50 23 27 1021.0 - -
20/01:10am 13.0 4.8 8.2 72 2.4 SW 41 48 22 26 1021.1 - -
20/01:00am 13.0 5.2 8.1 72 2.4 SW 39 46 21 25 1021.2 - -
20/12:50am 13.0 4.4 8.0 71 2.5 SW 43 52 23 28 1021.2 - -
20/12:40am 13.0 3.8 8.0 71 2.5 SW 46 54 25 29 1021.3 - -
20/12:30am 13.0 4.4 8.0 71 2.5 SW 43 50 23 27 1021.5 - -
20/12:20am 13.1 4.9 8.3 72 2.4 SW 41 52 22 28 1021.6 - -
20/12:10am 13.1 4.5 8.2 72 2.4 SW 43 50 23 27 1021.5 - -
20/12:00am 13.2 5.0 8.3 72 2.4 SW 41 50 22 27 1021.6 - -
 
Date/Time
EST
Temp
°C
App
Temp
°C
Dew
Point
Rel
Hum
%
Delta-T
°C
Wind Press
QNH
hPa
Press
MSL
hPa
Rain
since 9 am
mm
Dir
 
Spd
km/h
Gust
km/h
Spd
kts
Gust
kts
19/11:50pm 13.2 4.7 8.4 72 2.4 SW 43 52 23 28 1021.5 - -
19/11:30pm 13.2 4.6 8.2 71 2.5 SW 43 52 23 28 1021.3 - -
19/11:20pm 13.2 4.6 8.1 71 2.5 SW 43 52 23 28 1021.1 - -
19/11:10pm 13.2 4.3 7.8 70 2.7 SW 44 52 24 28 1021.1 - -
19/11:00pm 13.7 5.0 7.8 67 2.9 SW 43 50 23 27 1021.1 - -
19/10:50pm 14.7 6.7 9.0 68 2.9 SW 41 52 22 28 1021.1 - -
19/10:40pm 13.2 4.4 8.1 71 2.5 SW 44 56 24 30 1021.0 - -
19/10:30pm 13.2 4.0 7.8 70 2.7 SW 46 54 25 29 1020.8 - -
19/10:20pm 13.3 3.3 7.8 69 2.7 SW 50 57 27 31 1020.7 - -
19/10:10pm 13.6 4.8 7.9 68 2.8 SW 44 54 24 29 1021.0 - -
19/10:00pm 13.2 4.0 7.8 70 2.7 SW 46 54 25 29 1021.1 - -
19/09:50pm 13.1 3.8 7.6 69 2.7 SW 46 54 25 29 1021.0 - -
19/09:40pm 13.1 3.8 7.5 69 2.7 SW 46 54 25 29 1021.0 - -
19/09:30pm 13.1 4.2 7.5 69 2.7 SW 44 54 24 29 1021.1 - -
19/09:20pm 13.3 4.3 7.4 67 2.9 SW 44 56 24 30 1021.1 - -
19/09:10pm 13.3 4.3 7.4 67 2.9 SW 44 56 24 30 1021.0 - -
19/09:00pm 13.3 4.0 7.7 69 2.8 SW 46 54 25 29 1021.0 - -
19/08:50pm 13.3 4.5 8.0 70 2.6 SW 44 54 24 29 1021.1 - -
19/08:40pm 13.3 4.1 7.9 70 2.7 SW 46 57 25 31 1021.1 - -
19/08:30pm 13.3 3.7 7.8 69 2.7 SW 48 57 26 31 1020.9 - -
19/08:20pm 13.3 3.3 7.8 69 2.7 SW 50 61 27 33 1020.8 - -
19/08:10pm 13.3 3.7 7.9 70 2.7 SW 48 57 26 31 1020.8 - -
19/08:00pm 13.3 4.1 8.1 71 2.6 SW 46 57 25 31 1021.0 - -
19/07:50pm 13.4 5.2 8.2 71 2.6 SW 41 50 22 27 1021.2 - -
19/07:40pm 13.3 4.5 8.0 70 2.6 SW 44 50 24 27 1021.0 - -
19/07:30pm 13.3 4.6 7.8 69 2.7 SW 43 52 23 28 1020.9 - -
19/07:20pm 13.3 3.6 7.7 69 2.8 SW 48 57 26 31 1020.8 - -
19/07:10pm 13.3 3.7 7.9 70 2.7 SW 48 56 26 30 1020.7 - -
19/06:50pm 13.3 3.3 7.9 70 2.7 SW 50 59 27 32 1020.6 - -
19/06:40pm 13.2 3.2 7.7 69 2.7 SW 50 59 27 32 1020.4 - -
19/06:30pm 13.3 3.2 7.6 68 2.8 SW 50 59 27 32 1020.2 - -
19/06:20pm 13.3 3.2 7.5 68 2.8 SW 50 59 27 32 1020.1 - -
19/06:10pm 13.3 2.4 7.3 67 2.9 SW 54 63 29 34 1020.0 - -
19/06:00pm 13.3 2.4 7.4 67 2.9 SW 54 61 29 33 1020.0 - -
19/05:50pm 13.3 2.4 7.4 67 2.9 SW 54 59 29 32 1020.0 - -
19/05:40pm 13.3 2.8 7.4 67 2.9 SW 52 59 28 32 1019.9 - -
19/05:30pm 13.3 3.3 7.7 69 2.8 SW 50 59 27 32 1020.0 - -
19/05:20pm 13.4 4.2 7.9 69 2.7 SW 46 56 25 30 1020.0 - -
19/05:10pm 13.3 3.3 7.8 69 2.7 SW 50 57 27 31 1019.9 - -
19/05:00pm 13.5 4.3 8.1 70 2.7 SW 46 56 25 30 1020.0 - -
19/04:50pm 13.6 4.8 8.1 69 2.7 SW 44 52 24 28 1020.0 - -
19/04:40pm 13.6 4.6 7.4 66 3.0 SW 44 54 24 29 1019.9 - -
19/04:30pm 13.6 3.6 7.7 67 2.9 SW 50 57 27 31 1019.7 - -
19/04:20pm 13.6 4.0 7.9 68 2.8 SW 48 61 26 33 1019.6 - -
19/04:10pm 13.6 3.2 7.8 68 2.9 SW 52 61 28 33 1019.3 - -
19/04:00pm 13.7 4.5 8.0 68 2.8 SW 46 56 25 30 1019.3 - -
19/03:50pm 13.7 4.2 8.2 69 2.7 SW 48 56 26 30 1019.2 - -
19/03:40pm 13.8 4.6 8.1 68 2.8 SW 46 56 25 30 1019.3 - -
19/03:30pm 13.9 4.6 7.7 66 3.1 SW 46 54 25 29 1019.3 - -
19/03:20pm 14.0 5.3 8.3 68 2.9 SW 44 56 24 30 1019.3 - -
19/03:10pm 14.0 5.2 8.2 68 2.9 SW 44 56 24 30 1019.3 - -
19/03:00pm 13.9 4.8 8.3 69 2.8 SW 46 56 25 30 1019.4 - -
19/02:50pm 13.9 5.1 8.2 68 2.8 SW 44 54 24 29 1019.3 - -
19/02:40pm 13.8 5.0 7.9 67 2.9 SW 44 56 24 30 1019.4 - -
19/02:30pm 13.9 4.7 7.8 66 3.0 SW 46 56 25 30 1019.3 - -
19/02:20pm 13.9 5.0 7.8 66 3.0 SW 44 52 24 28 1019.3 - -
19/02:10pm 14.0 4.8 8.0 67 3.0 SW 46 56 25 30 1019.1 - -
19/01:50pm 14.0 5.2 8.2 68 2.9 SW 44 52 24 28 1019.0 - -
19/01:40pm 14.1 5.3 8.2 67 2.9 SW 44 52 24 28 1019.2 - -
19/01:30pm 14.1 5.5 8.1 67 3.0 SW 43 52 23 28 1019.3 - -
19/01:20pm 14.1 5.2 7.8 66 3.1 SW 44 52 24 28 1019.2 - -
19/01:10pm 14.0 4.8 7.8 66 3.1 SW 46 52 25 28 1019.1 - -
19/01:00pm 14.0 5.3 7.7 66 3.1 SW 43 52 23 28 1019.2 - -
19/12:50pm 14.0 4.7 7.6 65 3.2 SW 46 54 25 29 1019.1 - -
19/12:40pm 14.0 4.3 7.4 64 3.2 SW 48 56 26 30 1019.2 - -
19/12:30pm 14.0 4.6 7.0 62 3.4 SW 46 54 25 29 1019.3 - -
19/12:20pm 14.1 5.4 7.5 64 3.3 SW 43 52 23 28 1019.5 - -
19/12:10pm 14.1 5.8 7.9 66 3.1 SW 41 48 22 26 1019.6 - -
19/12:00pm 14.1 5.2 7.7 65 3.2 SW 44 52 24 28 1019.6 - -
19/11:50am 14.2 5.3 7.6 64 3.3 SW 44 52 24 28 1019.6 - -
19/11:40am 14.2 5.5 7.6 64 3.3 SW 43 52 23 28 1019.7 - -
19/11:30am 14.4 5.7 7.7 64 3.3 SW 43 50 23 27 1019.6 - -
19/11:20am 14.5 5.6 7.7 63 3.4 SW 44 52 24 28 1019.7 - -
19/11:10am 14.6 5.9 7.9 64 3.3 SW 43 48 23 26 1019.7 - -
19/11:00am 14.7 5.8 7.6 62 3.5 SW 44 54 24 29 1019.8 - -
19/10:50am 14.8 5.5 7.5 61 3.6 SW 46 54 25 29 1019.8 - -
19/10:40am 14.8 5.9 7.5 61 3.6 SW 44 52 24 28 1019.9 - -
19/10:30am 14.9 6.0 7.7 62 3.6 SW 44 50 24 27 1020.1 - -
19/10:20am 15.0 6.8 8.2 64 3.4 SW 41 48 22 26 1020.2 - -
19/10:10am 15.0 6.7 7.8 62 3.6 SW 41 48 22 26 1020.4 - -
19/10:00am 15.0 6.4 8.0 63 3.5 SW 43 50 23 27 1020.4 - -
19/09:50am 15.0 6.9 8.7 66 3.2 SW 41 50 22 27 1020.3 - -
19/09:40am 15.1 7.5 8.9 66 3.2 SW 39 44 21 24 1020.4 - -
19/09:30am 15.0 7.7 8.8 66 3.2 SW 37 43 20 23 1020.4 - -
19/09:20am 14.9 7.2 8.6 66 3.2 SW 39 46 21 25 1020.4 - -
19/09:10am 14.9 6.8 8.7 66 3.1 SW 41 46 22 25 1020.4 - -
19/09:00am 14.9 7.6 8.7 66 3.1 SW 37 44 20 24 1020.5 - -
19/08:50am 14.9 7.1 8.2 64 3.4 SW 39 48 21 26 1020.5 - -
19/08:40am 14.7 6.1 8.0 64 3.3 SW 43 52 23 28 1020.2 - -
19/08:30am 14.4 6.1 7.6 63 3.4 SW 41 50 22 27 1020.3 - -
19/08:20am 14.2 5.9 7.9 66 3.1 SW 41 48 22 26 1020.3 - -
19/08:10am 14.1 5.6 8.7 70 2.7 SW 43 54 23 29 1020.2 - -
19/08:00am 14.2 7.0 9.0 71 2.6 WSW 37 48 20 26 1020.3 - -
19/07:50am 14.2 6.9 8.6 69 2.8 WSW 37 46 20 25 1020.2 - -
19/07:40am 14.2 5.7 8.5 68 2.9 SW 43 52 23 28 1020.1 - -
19/07:30am 14.2 7.3 8.9 70 2.7 WSW 35 48 19 26 1020.2 - -
19/07:20am 13.9 5.3 8.2 68 2.8 SW 43 50 23 27 1020.0 - -
19/07:00am 13.5 5.1 9.1 75 2.2 SW 43 50 23 27 1020.0 - -
19/06:50am 13.2 6.5 9.6 79 1.8 WSW 35 43 19 23 1020.1 - -
19/06:40am 12.8 5.2 9.2 79 1.8 WSW 39 48 21 26 1019.9 - -
19/06:30am 12.9 5.4 9.3 79 1.8 WSW 39 46 21 25 1020.0 - -
19/06:20am 12.6 5.0 9.1 79 1.8 WSW 39 44 21 24 1020.0 - -
19/06:10am 12.5 5.6 9.0 79 1.8 WSW 35 44 19 24 1019.9 - -
19/06:00am 12.5 5.6 8.9 79 1.8 WSW 35 41 19 22 1019.9 - -
19/05:50am 12.4 5.2 9.0 80 1.7 WSW 37 43 20 23 1019.8 - -
19/05:40am 12.4 5.5 9.0 80 1.7 WSW 35 41 19 22 1019.8 - -
19/05:30am 12.3 5.0 8.9 80 1.7 WSW 37 44 20 24 1019.6 - -
19/05:20am 12.3 4.3 9.0 80 1.7 WSW 41 50 22 27 1019.4 - -
19/05:10am 12.3 5.0 8.9 80 1.7 WSW 37 44 20 24 1019.5 - -
19/05:00am 12.2 4.9 8.7 79 1.7 WSW 37 46 20 25 1019.4 - -
19/04:50am 12.2 3.8 8.8 80 1.7 WSW 43 52 23 28 1019.1 - -
19/04:40am 12.0 4.3 8.8 81 1.6 WSW 39 48 21 26 1019.2 - -
19/04:30am 12.0 5.0 8.6 80 1.7 WSW 35 41 19 22 1019.3 - -
19/04:20am 12.1 4.4 8.7 80 1.7 WSW 39 46 21 25 1019.2 - -
19/04:10am 12.1 4.8 8.6 79 1.7 WSW 37 46 20 25 1019.1 - -
19/04:00am 12.2 4.0 8.4 77 1.9 WSW 41 50 22 27 1019.0 - -
19/03:40am 12.6 5.2 8.2 74 2.2 WSW 37 44 20 24 1019.0 - -
19/03:30am 12.5 5.0 8.1 74 2.2 WSW 37 46 20 25 1018.9 - -
19/03:20am 12.4 4.1 7.9 74 2.2 WSW 41 48 22 26 1018.8 - -
19/03:10am 12.4 3.7 7.8 73 2.3 WSW 43 46 23 25 1018.8 - -
19/03:00am 12.3 4.0 7.8 74 2.2 WSW 41 48 22 26 1018.9 - -
19/02:50am 12.4 3.7 7.8 73 2.3 WSW 43 54 23 29 1018.8 - -
19/02:40am 12.5 3.6 7.8 73 2.3 WSW 44 52 24 28 1018.7 - -
19/02:30am 12.6 3.7 7.6 71 2.4 WSW 44 54 24 29 1018.8 - -
19/02:20am 12.6 3.8 7.4 70 2.5 WSW 43 52 23 28 1018.9 - -
19/02:10am 12.7 4.3 7.3 69 2.6 WSW 41 46 22 25 1018.9 - -
19/02:00am 12.7 4.2 7.0 68 2.7 WSW 41 50 22 27 1018.9 - -
19/01:50am 12.8 4.8 7.3 69 2.7 WSW 39 48 21 26 1019.0 - -
19/01:40am 12.8 4.7 6.9 67 2.8 WSW 39 46 21 25 1018.9 - -
19/01:30am 12.8 3.8 6.5 65 3.0 WSW 43 54 23 29 1018.8 - -
19/01:20am 12.8 4.6 6.7 66 2.9 WSW 39 48 21 26 1018.9 - -
19/01:10am 12.8 4.1 6.1 64 3.2 WSW 41 50 22 27 1018.9 - -
19/01:00am 12.7 3.6 5.8 63 3.2 SW 43 50 23 27 1019.0 - -
19/12:50am 12.7 3.3 5.6 62 3.3 SW 44 52 24 28 1019.0 - -
19/12:40am 12.7 3.6 5.7 62 3.3 SW 43 52 23 28 1019.0 - -
19/12:30am 12.7 4.0 5.9 63 3.2 SW 41 48 22 26 1019.0 - -
19/12:20am 12.7 3.3 5.6 62 3.3 SW 44 57 24 31 1019.1 - -
19/12:10am 12.7 3.3 5.2 60 3.5 SW 44 54 24 29 1019.3 - -
19/12:00am 12.6 2.7 4.8 59 3.6 SW 46 54 25 29 1019.3 - -
 
Date/Time
EST
Temp
°C
App
Temp
°C
Dew
Point
Rel
Hum
%
Delta-T
°C
Wind Press
QNH
hPa
Press
MSL
hPa
Rain
since 9 am
mm
Dir
 
Spd
km/h
Gust
km/h
Spd
kts
Gust
kts
18/11:50pm 12.6 3.1 4.9 59 3.5 SW 44 54 24 29 1019.4 - -
18/11:40pm 12.5 2.6 4.6 58 3.6 SW 46 54 25 29 1019.4 - -
18/11:30pm 12.6 2.7 4.6 58 3.7 SW 46 54 25 29 1019.4 - -
18/11:20pm 12.5 2.6 4.7 59 3.6 SW 46 56 25 30 1019.5 - -
18/11:10pm 12.5 2.5 4.5 58 3.6 SW 46 54 25 29 1019.5 - -
18/11:00pm 12.6 2.6 4.2 56 3.8 SW 46 56 25 30 1019.6 - -
18/10:50pm 12.6 2.6 4.2 56 3.8 SW 46 56 25 30 1019.8 - -
18/10:40pm 12.6 3.2 4.3 57 3.8 SW 43 50 23 27 1020.0 - -
18/10:30pm 12.6 2.5 3.9 55 3.9 SW 46 56 25 30 1020.2 - -
18/10:20pm 13.2 3.9 4.8 56 3.9 SW 43 54 23 29 1020.2 - -
18/10:00pm 13.0 3.0 4.4 56 3.9 SW 46 57 25 31 1020.2 - -
18/09:50pm 12.7 2.3 4.4 57 3.8 SW 48 56 26 30 1020.1 - -
18/09:40pm 12.8 2.8 4.2 56 3.9 SW 46 54 25 29 1020.2 - -
18/09:30pm 13.1 2.4 4.6 56 3.9 SW 50 56 27 30 1020.2 - -
18/09:20pm 13.0 2.7 4.7 57 3.8 SW 48 56 26 30 1020.1 - -
18/09:10pm 12.6 2.0 5.0 60 3.5 SW 50 57 27 31 1020.1 - -
18/09:00pm 12.5 2.6 5.0 60 3.5 SW 46 56 25 30 1020.1 - -
18/08:50pm 12.6 2.3 4.8 59 3.6 SW 48 57 26 31 1020.2 - -
18/08:40pm 12.5 3.0 4.8 59 3.5 SW 44 54 24 29 1020.2 - -
18/08:30pm 12.5 2.6 4.7 59 3.6 SW 46 54 25 29 1020.1 - -
18/08:20pm 12.4 2.8 4.5 58 3.6 SW 44 56 24 30 1020.2 - -
18/08:10pm 12.4 2.9 5.1 61 3.4 SW 44 56 24 30 1020.2 - -
18/08:00pm 12.4 2.9 5.0 60 3.4 SW 44 54 24 29 1020.0 - -
18/07:50pm 12.4 2.9 5.0 60 3.4 SW 44 54 24 29 1019.8 - -
18/07:40pm 12.3 2.4 4.6 59 3.5 SW 46 56 25 30 1019.6 - -
18/07:30pm 12.4 2.5 4.7 59 3.5 SW 46 56 25 30 1019.7 - -
18/07:20pm 12.4 2.1 4.7 59 3.5 SW 48 56 26 30 1019.7 - -
18/07:10pm 12.5 2.2 4.7 59 3.6 SW 48 59 26 32 1019.7 - -
18/07:00pm 12.5 1.9 5.0 60 3.5 SW 50 56 27 30 1019.6 - -
18/06:50pm 12.6 2.5 5.5 62 3.3 SW 48 57 26 31 1019.4 - -
18/06:40pm 12.7 2.3 6.2 64 3.1 SW 50 59 27 32 1019.4 - -
18/06:30pm 12.8 2.5 6.7 66 2.9 SW 50 59 27 32 1019.3 - -
18/06:20pm 12.8 2.9 6.8 67 2.9 SW 48 54 26 29 1019.5 - -
18/06:10pm 12.8 3.6 6.5 65 3.0 SW 44 54 24 29 1019.5 - -
18/06:00pm 12.8 2.7 5.9 63 3.3 SW 48 57 26 31 1019.5 - -
18/05:50pm 12.8 2.3 5.6 61 3.4 SW 50 61 27 33 1019.6 - -
18/05:40pm 12.7 1.9 6.1 64 3.1 SW 52 61 28 33 1019.3 - -
18/05:30pm 12.7 2.4 6.3 65 3.0 SW 50 57 27 31 1019.1 - -
18/05:20pm 12.7 2.4 6.4 65 3.0 SW 50 59 27 32 1018.7 - -
18/05:10pm 12.7 2.7 6.0 63 3.2 SW 48 59 26 32 1018.7 - -
18/05:00pm 12.7 2.7 6.2 64 3.1 SW 48 56 26 30 1018.8 - -
18/04:50pm 12.7 2.3 6.1 64 3.1 SW 50 59 27 32 1018.6 - -
18/04:40pm 12.8 2.3 5.6 61 3.4 SW 50 57 27 31 1018.5 - -
18/04:30pm 12.9 2.8 5.8 62 3.3 SW 48 56 26 30 1018.4 - -
18/04:20pm 12.8 2.3 5.4 60 3.5 SW 50 57 27 31 1018.2 - -
18/04:10pm 13.0 2.1 5.7 61 3.4 SW 52 61 28 33 1018.0 - -
18/04:00pm 13.0 2.9 5.7 61 3.4 SW 48 56 26 30 1018.2 - -
18/03:50pm 13.0 3.6 5.6 61 3.5 SW 44 54 24 29 1018.4 - -
18/03:40pm 13.0 2.5 5.6 61 3.5 SW 50 57 27 31 1018.0 - -
18/03:30pm 12.9 2.3 5.3 60 3.5 SW 50 59 27 32 1017.7 - -
18/03:20pm 12.9 2.7 5.2 59 3.6 SW 48 56 26 30 1017.8 - -
18/03:10pm 12.8 3.4 5.5 61 3.4 SW 44 54 24 29 1018.0 - -
18/03:00pm 12.7 2.8 4.9 59 3.6 SW 46 54 25 29 1017.8 - -
18/02:50pm 12.7 3.2 4.8 58 3.6 SW 44 52 24 28 1018.0 - -
18/02:40pm 12.7 4.2 5.0 59 3.6 SW 39 52 21 28 1018.2 - -
18/02:30pm 12.6 3.5 4.2 56 3.8 SW 41 48 22 26 1018.0 - -
18/02:20pm 12.6 3.1 4.1 56 3.8 SW 43 50 23 27 1018.0 - -
18/02:10pm 12.6 3.2 4.2 56 3.8 SW 43 50 23 27 1017.8 - -
18/02:00pm 12.7 3.6 4.2 56 3.9 SW 41 50 22 27 1018.0 - -
18/01:50pm 12.7 3.4 5.1 60 3.5 SW 43 48 23 26 1018.1 - -
18/01:40pm 12.7 3.8 5.0 59 3.6 SW 41 50 22 27 1018.1 - -
18/01:30pm 12.7 3.8 5.0 59 3.6 SW 41 50 22 27 1018.2 - -
18/01:20pm 12.7 3.8 5.2 60 3.5 SW 41 48 22 26 1018.5 - -
18/01:10pm 12.7 3.8 5.1 60 3.5 SW 41 46 22 25 1018.2 - -
18/01:00pm 12.8 3.8 4.8 58 3.7 SW 41 50 22 27 1018.1 - -
18/12:50pm 12.8 3.4 4.7 58 3.7 SW 43 50 23 27 1018.1 - -
18/12:40pm 12.8 3.2 4.3 56 3.9 SW 44 50 24 27 1018.1 - -
18/12:30pm 12.8 3.3 4.9 58 3.6 SW 44 50 24 27 1017.8 - -
18/12:20pm 12.9 3.7 5.4 60 3.5 SW 43 50 23 27 1017.8 - -
18/12:10pm 13.1 3.3 5.3 59 3.6 SW 46 54 25 29 1017.6 - -
18/12:00pm 13.1 3.7 5.3 59 3.6 SW 44 52 24 28 1017.9 - -
18/11:50am 13.1 3.2 4.8 57 3.8 SW 46 54 25 29 1018.0 - -
18/11:40am 13.2 3.7 4.9 57 3.8 SW 44 54 24 29 1017.9 - -
18/11:30am 13.2 3.1 4.0 53 4.2 SW 46 52 25 28 1017.6 - -
18/11:20am 13.3 3.7 4.5 55 4.0 SW 44 54 24 29 1017.8 - -
18/11:10am 13.4 3.8 4.6 55 4.1 SW 44 52 24 28 1017.8 - -
18/11:00am 13.4 4.0 4.3 54 4.2 SW 43 50 23 27 1018.0 - -
18/10:50am 13.4 3.9 3.9 52 4.3 SW 43 50 23 27 1018.0 - -
18/10:30am 13.6 3.9 4.0 52 4.4 SW 44 52 24 28 1017.9 - -
18/10:20am 13.6 3.8 3.6 51 4.5 SW 44 50 24 27 1017.8 - -
18/10:10am 13.5 4.0 3.8 52 4.4 SW 43 52 23 28 1018.0 - -

Other Formats:

Comma delimited format used in spreadsheet applications
http://www.bom.gov.au/fwo/IDV60801/IDV60801.55039.axf

JavaScript Object Notation format (JSON) in row-major order
http://www.bom.gov.au/fwo/IDV60801/IDV60801.55039.json